Time;durP1;ratioP1;P1;durP2;ratioP2;P2;SDS_P1;SDS_P2;PMS_P1;PMS_P2;Temp;Humidity;BMP_temperature;BMP_pressure;BME280_temperature;BME280_humidity;BME280_pressure;Samples;Min_cycle;Max_cycle;Signal;HPM_P1;HPM_P2
2022/06/16 04:09:27;;;;;;;8.98;4.78;;;;;;;17.95;67.45;100805.06;5619896;31;77360;-53
2022/06/16 04:12:32;;;;;;;9.13;4.70;;;;;;;17.95;67.45;100805.06;5603548;31;34142;-53
2022/06/16 04:15:35;;;;;;;8.73;4.90;;;;;;;17.50;67.40;100813.44;5602451;31;33151;-53
2022/06/16 04:18:38;;;;;;;8.55;4.62;;;;;;;17.56;68.41;100820.31;5603754;31;34074;-53
2022/06/16 04:21:42;;;;;;;6.22;4.60;;;;;;;17.60;69.68;100819.34;5603717;31;33636;-53
2022/06/16 04:24:45;;;;;;;8.30;5.03;;;;;;;17.80;65.91;100812.53;5603801;31;33270;-52
2022/06/16 04:27:48;;;;;;;11.20;5.37;;;;;;;17.86;68.06;100813.19;5595286;31;34135;-53
2022/06/16 04:30:50;;;;;;;9.65;5.10;;;;;;;18.08;65.05;100818.47;5583606;32;33642;-53
2022/06/16 04:33:54;;;;;;;10.23;4.97;;;;;;;18.23;67.42;100821.78;5583904;31;34253;-54
2022/06/16 04:36:57;;;;;;;8.68;4.90;;;;;;;18.26;72.99;100819.22;5583715;32;34242;-53
2022/06/16 04:40:00;;;;;;;8.15;4.93;;;;;;;18.21;66.08;100824.84;5583743;31;34349;-53
2022/06/16 04:43:04;;;;;;;9.25;5.43;;;;;;;18.40;71.59;100818.25;5583615;31;34568;-54
2022/06/16 04:46:08;;;;;;;19.90;5.50;;;;;;;18.58;64.74;100819.84;5583720;31;33435;-53
2022/06/16 04:49:11;;;;;;;12.82;5.30;;;;;;;18.67;64.22;100811.66;5583449;31;34448;-53
2022/06/16 04:52:18;;;;;;;10.75;5.35;;;;;;;18.79;64.19;100814.53;5583596;31;34139;-54
2022/06/16 04:55:22;;;;;;;9.60;5.37;;;;;;;18.83;63.20;100818.19;5583351;31;33217;-53
2022/06/16 04:58:27;;;;;;;7.20;5.47;;;;;;;18.93;62.66;100819.75;5583073;32;33237;-54
2022/06/16 05:01:30;;;;;;;8.77;5.50;;;;;;;19.10;62.56;100810.72;5583308;31;33541;-54
2022/06/16 05:04:34;;;;;;;12.57;5.25;;;;;;;19.17;61.43;100811.81;5582613;31;33400;-53
2022/06/16 05:07:37;;;;;;;10.35;4.78;;;;;;;19.33;59.15;100813.97;5582114;32;33407;-54
2022/06/16 05:10:39;;;;;;;10.57;4.50;;;;;;;19.55;59.26;100804.72;5583440;31;34228;-53
2022/06/16 05:13:42;;;;;;;15.88;5.32;;;;;;;19.68;59.49;100818.09;5583174;31;33210;-54
2022/06/16 05:16:45;;;;;;;13.02;4.85;;;;;;;19.93;62.56;100815.50;5582258;31;34424;-53
2022/06/16 05:19:47;;;;;;;9.30;5.25;;;;;;;20.21;61.18;100804.06;5574331;32;33631;-53
2022/06/16 05:22:50;;;;;;;7.43;4.18;;;;;;;20.34;55.22;100800.25;5569809;31;33607;-54
2022/06/16 05:25:52;;;;;;;7.80;4.15;;;;;;;20.56;63.55;100808.06;5550765;32;33305;-54
2022/06/16 05:28:55;;;;;;;8.40;4.25;;;;;;;20.72;63.79;100810.91;5550609;32;31860;-54
2022/06/16 05:31:58;;;;;;;6.78;4.20;;;;;;;20.83;56.29;100806.63;5556901;32;34719;-55
2022/06/16 05:35:11;;;;;;;7.55;4.30;;;;;;;20.98;54.44;100805.16;5562624;32;34081;-53
2022/06/16 05:38:14;;;;;;;9.07;4.43;;;;;;;21.23;59.37;100800.50;5569209;31;33337;-54
2022/06/16 05:41:17;;;;;;;8.50;4.78;;;;;;;21.35;54.41;100802.44;5569657;32;33100;-54
2022/06/16 05:44:20;;;;;;;10.73;4.60;;;;;;;21.39;51.51;100811.56;5569517;32;33678;-53
2022/06/16 05:47:23;;;;;;;9.60;4.68;;;;;;;21.44;50.87;100800.41;5566726;32;32924;-54
2022/06/16 05:50:27;;;;;;;11.82;5.22;;;;;;;21.47;51.42;100801.66;5561287;32;33547;-54
2022/06/16 05:53:33;;;;;;;16.20;5.03;;;;;;;21.58;52.46;100800.81;5568580;32;33739;-54
2022/06/16 05:56:37;;;;;;;16.55;5.03;;;;;;;21.58;50.62;100800.81;5568264;31;31931;-53
2022/06/16 05:59:40;;;;;;;8.98;4.85;;;;;;;21.70;50.11;100796.50;5568640;31;33308;-54
2022/06/16 06:02:42;;;;;;;10.85;4.15;;;;;;;21.75;50.28;100793.50;5568832;31;34447;-54
2022/06/16 06:05:46;;;;;;;7.07;4.22;;;;;;;21.90;50.45;100798.25;5568830;31;33335;-53
2022/06/16 06:18:56;;;;;;;9.85;3.72;;;;;;;22.48;53.79;100798.69;5568867;32;33478;-55
2022/06/16 06:22:11;;;;;;;8.85;3.87;;;;;;;22.72;53.92;100784.06;5568801;31;33316;-54
2022/06/16 06:25:14;;;;;;;8.73;3.62;;;;;;;22.88;55.49;100795.00;5549283;32;33164;-55
2022/06/16 06:28:21;;;;;;;11.52;4.70;;;;;;;22.92;49.37;100784.94;5548976;32;34148;-53
2022/06/16 06:31:23;;;;;;;;;;;;;;;22.99;47.62;100784.34;5548842;32;33599;-53
2022/06/16 06:34:29;;;;;;;21.58;4.47;;;;;;;23.18;51.16;100787.16;5549431;32;33477;-54
2022/06/16 06:37:32;;;;;;;5.80;4.07;;;;;;;23.23;49.60;100796.22;5567267;32;33782;-54
2022/06/16 06:40:36;;;;;;;7.62;3.75;;;;;;;23.27;51.19;100792.41;5568354;31;34340;-55
2022/06/16 06:43:38;;;;;;;7.35;3.97;;;;;;;23.42;49.26;100802.53;5568644;32;33604;-54
2022/06/16 06:46:41;;;;;;;11.75;3.97;;;;;;;23.57;46.38;100798.16;5569015;32;34333;-54
2022/06/16 06:49:44;;;;;;;9.10;3.35;;;;;;;23.67;46.66;100799.53;5568814;32;33687;-54
2022/06/16 06:52:47;;;;;;;7.72;3.58;;;;;;;23.78;48.48;100797.09;5568667;32;33766;-55
2022/06/16 06:55:50;;;;;;;9.43;3.75;;;;;;;23.81;47.27;100786.22;5568551;32;33794;-54
2022/06/16 06:58:54;;;;;;;8.00;3.50;;;;;;;23.76;47.19;100789.22;5568875;32;33952;-54
2022/06/16 07:01:57;;;;;;;16.25;3.78;;;;;;;23.79;47.83;100787.72;5568573;32;33736;-55
2022/06/16 07:04:59;;;;;;;7.60;3.95;;;;;;;23.95;47.61;100787.66;5568295;32;33894;-55
2022/06/16 07:08:02;;;;;;;10.52;3.83;;;;;;;24.03;46.89;100790.16;5568372;32;33655;-54
2022/06/16 07:11:04;;;;;;;7.68;3.67;;;;;;;24.02;46.52;100794.03;5568268;32;34217;-53
2022/06/16 07:14:08;;;;;;;16.12;4.90;;;;;;;24.06;46.91;100785.91;5557614;32;33202;-53
2022/06/16 07:17:11;;;;;;;8.30;4.10;;;;;;;24.07;47.00;100788.28;5552705;32;33595;-54
2022/06/16 07:20:15;;;;;;;7.82;3.55;;;;;;;24.10;45.70;100782.06;5548729;32;34383;-54
2022/06/16 07:23:18;;;;;;;11.35;4.35;;;;;;;24.24;47.91;100789.78;5560004;32;33721;-54
2022/06/16 07:26:22;;;;;;;5.57;3.67;;;;;;;24.32;46.59;100775.03;5566256;32;34416;-53
2022/06/16 07:29:24;;;;;;;6.60;3.65;;;;;;;24.35;45.94;100776.28;5567447;32;33407;-53
2022/06/16 07:32:26;;;;;;;15.57;3.80;;;;;;;24.41;46.55;100777.59;5568248;32;33703;-53
2022/06/16 07:35:29;;;;;;;6.95;3.37;;;;;;;24.50;46.21;100769.94;5568243;32;34143;-54
2022/06/16 07:38:31;;;;;;;15.75;3.70;;;;;;;24.52;45.25;100770.34;5567712;32;34291;-53
2022/06/16 07:41:37;;;;;;;10.13;3.60;;;;;;;24.60;46.50;100763.84;5567592;32;33247;-54
2022/06/16 07:44:39;;;;;;;7.20;3.45;;;;;;;24.64;45.36;100763.09;5548914;32;34288;-54
2022/06/16 07:47:42;;;;;;;7.10;3.50;;;;;;;24.54;44.94;100772.72;5561599;32;33577;-55
2022/06/16 07:50:44;;;;;;;9.05;3.45;;;;;;;24.70;45.44;100767.91;5567732;32;33587;-54
2022/06/16 07:53:47;;;;;;;11.50;3.37;;;;;;;24.80;44.77;100770.03;5568141;32;34209;-54
2022/06/16 07:56:51;;;;;;;9.52;3.50;;;;;;;24.89;44.18;100771.72;5567224;32;34324;-54
2022/06/16 07:59:55;;;;;;;5.57;2.90;;;;;;;25.11;45.61;100759.91;5567149;32;33695;-54
2022/06/16 08:02:57;;;;;;;8.30;3.28;;;;;;;25.26;43.97;100763.66;5567670;32;34352;-53
2022/06/16 08:06:04;;;;;;;3.42;2.65;;;;;;;25.31;43.26;100766.09;5567968;32;34433;-54
2022/06/16 08:09:08;;;;;;;12.23;2.72;;;;;;;25.43;39.83;100752.16;5567691;32;34167;-54
2022/06/16 08:12:11;;;;;;;10.95;2.78;;;;;;;25.42;38.00;100760.75;5567475;32;34280;-54
2022/06/16 08:15:15;;;;;;;6.18;2.33;;;;;;;25.53;39.37;100757.00;5568034;32;33676;-54
2022/06/16 08:18:20;;;;;;;3.15;2.22;;;;;;;25.60;39.72;100750.03;5566015;32;33155;-55
2022/06/16 08:21:22;;;;;;;4.07;2.08;;;;;;;25.76;37.01;100754.16;5564465;32;33986;-55
2022/06/16 08:24:25;;;;;;;5.12;2.20;;;;;;;25.79;35.97;100758.06;5560682;32;33003;-54
2022/06/16 08:27:32;;;;;;;12.70;2.40;;;;;;;25.76;35.65;100750.59;5562541;32;34266;-54
2022/06/16 08:30:34;;;;;;;15.88;2.90;;;;;;;25.77;35.87;100760.44;5563776;32;34311;-54
2022/06/16 08:33:37;;;;;;;17.55;2.80;;;;;;;25.74;37.12;100761.16;5565749;32;33736;-54
2022/06/16 08:36:40;;;;;;;5.97;2.30;;;;;;;25.78;36.64;100764.75;5564861;32;33739;-54
2022/06/16 08:39:42;;;;;;;17.27;3.10;;;;;;;25.87;36.77;100770.78;5566295;32;33680;-55
2022/06/16 08:42:52;;;;;;;4.15;1.80;;;;;;;25.92;36.59;100770.41;5563956;32;33642;-54
2022/06/16 08:46:04;;;;;;;15.35;2.70;;;;;;;25.89;33.19;100770.38;5565471;32;33540;-54
2022/06/16 08:49:25;;;;;;;10.90;2.30;;;;;;;25.86;34.43;100771.94;5564014;32;33658;-53
2022/06/16 08:52:45;;;;;;;5.97;2.80;;;;;;;25.97;34.56;100761.84;5566211;32;33315;-54
2022/06/16 08:55:58;;;;;;;12.40;2.58;;;;;;;26.00;35.22;100760.31;5568199;32;34364;-55
2022/06/16 08:59:14;;;;;;;16.05;2.95;;;;;;;26.03;35.64;100767.81;5561858;32;34222;-54
2022/06/16 09:02:32;;;;;;;11.50;2.92;;;;;;;26.03;34.64;100765.06;5566394;32;34130;-54
2022/06/16 09:05:49;;;;;;;6.93;2.40;;;;;;;26.07;35.23;100773.34;5565943;32;34226;-54
2022/06/16 09:09:11;;;;;;;8.48;2.80;;;;;;;26.16;34.74;100766.37;5560663;32;34315;-55
2022/06/16 09:12:22;;;;;;;9.60;2.85;;;;;;;26.19;36.06;100762.06;5556565;32;33632;-55
2022/06/16 09:15:27;;;;;;;4.15;2.65;;;;;;;26.15;34.31;100764.78;5565210;32;33183;-54
2022/06/16 09:18:30;;;;;;;10.65;2.92;;;;;;;26.17;35.64;100761.69;5569274;32;34319;-54
2022/06/16 09:21:35;;;;;;;26.80;3.90;;;;;;;26.15;34.78;100753.00;5567773;32;34341;-54
2022/06/16 09:24:56;;;;;;;9.15;2.67;;;;;;;26.12;35.88;100754.53;5561245;32;33475;-54
2022/06/16 09:28:08;;;;;;;8.43;2.72;;;;;;;26.23;36.88;100760.19;5562900;32;33984;-54
2022/06/16 09:31:24;;;;;;;7.30;3.20;;;;;;;26.32;36.81;100759.84;5564448;32;33812;-54
2022/06/16 09:35:00;;;;;;;6.78;2.55;;;;;;;26.23;36.12;100747.22;5555911;32;34478;-55
2022/06/16 09:38:22;;;;;;;12.70;2.70;;;;;;;26.27;35.18;100744.50;5554086;32;33330;-54
2022/06/16 09:45:19;;;;;;;35.75;5.30;;;;;;;26.29;35.68;100746.84;5553957;32;33829;-55
2022/06/16 09:48:40;;;;;;;3.83;2.30;;;;;;;26.25;35.21;100742.13;5563789;32;34466;-55
2022/06/16 09:51:56;;;;;;;6.68;2.65;;;;;;;26.36;34.67;100727.72;5565491;32;33655;-54
2022/06/16 09:55:07;;;;;;;6.47;2.67;;;;;;;26.45;34.57;100725.41;5568587;32;34308;-55
2022/06/16 09:58:21;;;;;;;5.70;2.40;;;;;;;26.36;33.95;100730.47;5566200;32;34106;-54
2022/06/16 10:01:27;;;;;;;7.15;2.37;;;;;;;26.45;33.08;100723.44;5568719;32;34446;-53
2022/06/16 10:04:30;;;;;;;8.10;2.35;;;;;;;26.42;33.11;100726.16;5567545;32;33821;-54
2022/06/16 10:07:37;;;;;;;7.35;2.95;;;;;;;26.39;32.63;100729.69;5568987;32;33783;-56
2022/06/16 10:10:50;;;;;;;6.55;3.30;;;;;;;26.34;33.37;100730.81;5568135;32;33015;-54
2022/06/16 10:14:21;;;;;;;3.72;2.37;;;;;;;26.35;33.51;100718.66;5567113;32;33626;-54
2022/06/16 10:17:24;;;;;;;16.50;2.90;;;;;;;26.39;34.12;100726.94;5557053;31;33943;-54
2022/06/16 10:20:28;;;;;;;6.78;2.28;;;;;;;26.47;35.15;100728.59;5568116;32;33758;-54
2022/06/16 10:23:38;;;;;;;4.77;2.17;;;;;;;26.48;34.31;100719.19;5565584;32;33736;-54
2022/06/16 10:26:40;;;;;;;4.43;2.40;;;;;;;26.56;34.32;100725.56;5566765;31;34270;-55
2022/06/16 10:29:57;;;;;;;6.40;2.35;;;;;;;26.53;32.77;100726.31;5559842;32;33627;-54
2022/06/16 10:33:16;;;;;;;4.12;2.58;;;;;;;26.49;32.21;100718.03;5566366;32;33753;-54
2022/06/16 10:36:22;;;;;;;3.80;2.35;;;;;;;26.39;32.30;100713.19;5564170;32;34420;-54
2022/06/16 10:39:36;;;;;;;2.90;1.90;;;;;;;26.24;32.82;100723.28;5567196;32;34069;-54
2022/06/16 10:42:44;;;;;;;6.87;2.75;;;;;;;26.25;32.77;100720.12;5567667;32;34149;-54
2022/06/16 10:46:02;;;;;;;4.40;2.15;;;;;;;26.34;32.70;100722.56;5568774;32;33289;-54
2022/06/16 10:49:16;;;;;;;4.30;2.12;;;;;;;26.43;32.29;100725.81;5566567;32;33711;-54
2022/06/16 10:52:32;;;;;;;2.83;2.33;;;;;;;26.51;32.68;100720.38;5566676;32;34334;-55
2022/06/16 10:55:42;;;;;;;5.43;2.22;;;;;;;26.54;32.36;100716.88;5555141;32;33973;-54
2022/06/16 10:58:58;;;;;;;5.30;2.22;;;;;;;26.58;32.53;100720.44;5550679;32;33804;-54
2022/06/16 11:02:21;;;;;;;7.47;2.53;;;;;;;26.69;33.23;100713.88;5550960;32;34418;-54
2022/06/16 11:05:25;;;;;;;7.95;2.25;;;;;;;26.63;31.69;100709.88;5549381;32;34314;-53
2022/06/16 11:08:59;;;;;;;17.95;3.60;;;;;;;26.66;32.42;100705.59;5551723;32;33643;-54
2022/06/16 11:12:03;;;;;;;4.25;2.30;;;;;;;26.47;36.52;100692.84;5566491;32;33786;-53
2022/06/16 11:15:15;;;;;;;10.00;3.22;;;;;;;26.45;33.90;100692.44;5568693;32;32240;-54
2022/06/16 11:18:22;;;;;;;6.97;2.37;;;;;;;26.49;32.63;100693.28;5549334;32;33607;-54
2022/06/16 11:21:29;;;;;;;3.28;2.22;;;;;;;26.53;33.12;100685.84;5557906;32;34309;-54
2022/06/16 11:24:33;;;;;;;4.80;2.10;;;;;;;26.52;30.65;100673.25;5556845;32;34325;-54
2022/06/16 11:27:54;;;;;;;3.97;2.00;;;;;;;26.58;31.46;100676.44;5563245;32;33702;-54
2022/06/16 11:31:00;;;;;;;6.03;2.33;;;;;;;26.71;32.32;100670.25;5561334;32;34401;-54
2022/06/16 11:34:27;;;;;;;4.95;2.03;;;;;;;26.86;31.56;100659.38;5553647;32;34480;-54
2022/06/16 11:37:54;;;;;;;7.40;2.45;;;;;;;26.94;31.70;100653.50;5555008;32;33760;-55
2022/06/16 11:41:07;;;;;;;3.75;1.95;;;;;;;27.03;30.63;100649.63;5556478;32;33149;-54
2022/06/16 11:44:15;;;;;;;7.35;2.47;;;;;;;26.98;30.74;100645.25;5565002;32;34218;-54
2022/06/16 11:47:34;;;;;;;4.97;2.30;;;;;;;27.13;30.42;100654.41;5565120;32;33301;-54
2022/06/16 11:50:42;;;;;;;3.65;1.98;;;;;;;27.11;30.45;100645.72;5565570;32;33366;-55
2022/06/16 11:54:09;;;;;;;5.97;2.10;;;;;;;27.06;31.15;100644.13;5567079;32;33019;-54
2022/06/16 11:57:26;;;;;;;6.97;2.10;;;;;;;27.11;30.69;100642.97;5564255;32;34264;-54
2022/06/16 12:00:58;;;;;;;3.58;2.20;;;;;;;27.14;30.35;100637.50;5562378;32;33973;-53
2022/06/16 12:04:33;;;;;;;7.22;2.35;;;;;;;27.11;31.05;100621.72;5562609;32;33784;-54
2022/06/16 12:08:26;;;;;;;3.62;2.33;;;;;;;27.17;31.43;100625.72;5560742;32;33844;-54
2022/06/16 12:11:44;;;;;;;4.62;1.85;;;;;;;27.15;29.84;100619.84;5557514;32;33678;-54
2022/06/16 12:15:48;;;;;;;11.07;2.30;;;;;;;27.09;30.14;100623.31;5566990;32;33755;-54
2022/06/16 12:19:01;;;;;;;6.20;2.25;;;;;;;27.09;31.70;100621.34;5562768;32;33761;-54
2022/06/16 12:22:09;;;;;;;3.33;2.10;;;;;;;27.17;30.22;100617.47;5564482;32;35802;-54
2022/06/16 12:25:49;;;;;;;4.20;2.10;;;;;;;27.21;30.79;100620.22;5565060;32;33715;-54
2022/06/16 12:29:10;;;;;;;2.92;2.10;;;;;;;27.32;28.28;100625.81;5563121;32;33964;-54
2022/06/16 12:32:20;;;;;;;6.00;1.95;;;;;;;27.43;28.98;100625.81;5562796;32;34362;-54
2022/06/16 12:35:50;;;;;;;4.25;2.30;;;;;;;27.34;28.36;100624.22;5570339;32;34339;-54
2022/06/16 12:39:00;;;;;;;4.28;2.42;;;;;;;27.23;29.52;100628.13;5566717;32;33667;-55
2022/06/16 12:42:11;;;;;;;4.68;1.98;;;;;;;27.25;27.98;100620.25;5567497;32;33691;-54
2022/06/16 12:45:28;;;;;;;4.15;2.00;;;;;;;27.11;27.63;100616.22;5570520;32;33641;-54
2022/06/16 12:48:52;;;;;;;4.62;2.30;;;;;;;27.14;29.51;100620.22;5567834;32;34408;-54
2022/06/16 12:52:04;;;;;;;5.28;2.33;;;;;;;27.26;30.39;100611.62;5570094;32;33638;-54
2022/06/16 12:55:26;;;;;;;3.42;2.33;;;;;;;27.26;30.76;100606.09;5568375;32;33809;-55
2022/06/16 12:58:37;;;;;;;5.97;2.22;;;;;;;27.27;30.28;100599.41;5568738;32;33602;-54
2022/06/16 13:01:40;;;;;;;4.15;2.17;;;;;;;27.29;28.42;100588.03;5569944;32;34268;-54
2022/06/16 13:04:44;;;;;;;5.55;2.20;;;;;;;27.31;29.26;100586.44;5569290;32;33695;-54
2022/06/16 13:07:49;;;;;;;4.35;2.45;;;;;;;27.21;29.51;100576.19;5567439;32;33871;-54
2022/06/16 13:10:56;;;;;;;4.70;2.22;;;;;;;27.35;30.59;100568.00;5567109;32;33844;-54
2022/06/16 13:14:06;;;;;;;3.78;2.00;;;;;;;27.33;29.76;100566.81;5564125;32;33798;-53
2022/06/16 13:17:13;;;;;;;7.22;2.42;;;;;;;27.47;29.34;100568.78;5569747;32;33607;-54
2022/06/16 13:20:18;;;;;;;5.05;2.30;;;;;;;27.44;29.63;100562.09;5560821;32;34325;-54
2022/06/16 13:23:35;;;;;;;14.77;3.25;;;;;;;27.55;30.26;100562.09;5563802;32;33697;-54
2022/06/16 13:26:53;;;;;;;6.43;2.28;;;;;;;27.55;31.00;100551.91;5569398;32;34330;-55
2022/06/16 13:30:09;;;;;;;2.92;2.17;;;;;;;27.54;29.25;100555.03;5568405;32;34426;-54
2022/06/16 13:33:20;;;;;;;6.82;2.22;;;;;;;27.66;29.70;100551.12;5568796;32;34289;-54
2022/06/16 13:36:22;;;;;;;6.15;2.45;;;;;;;27.72;29.12;100544.84;5570063;32;34334;-54
2022/06/16 13:39:55;;;;;;;8.85;3.67;;;;;;;27.55;28.96;100549.16;5569499;32;34294;-54
2022/06/16 13:43:00;;;;;;;17.80;3.00;;;;;;;27.39;29.31;100543.22;5567084;32;33622;-54
2022/06/16 13:46:03;;;;;;;11.05;3.12;;;;;;;27.31;31.18;100533.38;5568546;32;33630;-54
2022/06/16 13:49:06;;;;;;;6.95;2.85;;;;;;;27.30;30.18;100529.06;5569505;32;33820;-54
2022/06/16 13:52:26;;;;;;;5.07;2.35;;;;;;;27.39;31.33;100524.75;5568200;32;33702;-53
2022/06/16 13:55:34;;;;;;;9.48;2.60;;;;;;;27.40;30.57;100531.81;5569395;32;34254;-54
2022/06/16 13:58:58;;;;;;;14.38;2.80;;;;;;;27.35;29.71;100525.91;5569331;32;33253;-54
2022/06/16 14:02:06;;;;;;;7.55;2.58;;;;;;;27.46;29.83;100525.94;5563513;32;31744;-54
2022/06/16 14:05:10;;;;;;;4.82;2.60;;;;;;;27.66;29.49;100529.09;5564188;32;33632;-54
2022/06/16 14:08:17;;;;;;;5.37;2.80;;;;;;;27.65;29.28;100522.81;5564531;31;33801;-53
2022/06/16 14:11:31;;;;;;;7.97;2.75;;;;;;;27.58;29.72;100526.34;5567206;32;34332;-53
2022/06/16 14:14:55;;;;;;;15.65;3.70;;;;;;;27.53;30.47;100526.72;5553162;32;33142;-54
2022/06/16 14:18:14;;;;;;;8.25;3.70;;;;;;;27.53;31.60;100515.72;5558989;32;34358;-53
2022/06/16 14:21:21;;;;;;;11.48;4.00;;;;;;;27.66;32.13;100510.59;5567732;32;34240;-54
2022/06/16 14:24:23;;;;;;;9.07;3.47;;;;;;;27.58;31.71;100509.81;5569185;32;34143;-54
2022/06/16 14:27:59;;;;;;;11.80;3.85;;;;;;;27.64;31.94;100510.97;5566254;32;33673;-53
2022/06/16 14:31:09;;;;;;;7.30;3.58;;;;;;;27.63;31.46;100509.41;5566401;32;33571;-57
2022/06/16 14:34:51;;;;;;;6.03;3.47;;;;;;;27.72;30.03;100494.47;5566093;32;33843;-54
2022/06/16 14:38:00;;;;;;;7.47;3.37;;;;;;;27.68;32.43;100488.94;5568162;32;33753;-55
2022/06/16 14:41:14;;;;;;;5.10;3.78;;;;;;;27.61;32.00;100477.94;5568194;32;33772;-54
2022/06/16 14:44:25;;;;;;;13.77;4.07;;;;;;;27.72;31.37;100472.44;5566258;32;33768;-54
2022/06/16 14:47:57;;;;;;;7.80;3.33;;;;;;;27.60;32.32;100466.12;5563455;32;33744;-54
2022/06/16 14:51:06;;;;;;;6.43;3.70;;;;;;;27.69;32.58;100462.22;5559270;32;33645;-54
2022/06/16 14:54:21;;;;;;;7.60;4.00;;;;;;;27.63;32.30;100461.81;5568538;32;34189;-54
2022/06/16 14:57:28;;;;;;;7.57;3.60;;;;;;;27.66;32.00;100463.78;5561031;32;33941;-54
2022/06/16 15:00:40;;;;;;;7.30;3.72;;;;;;;27.55;31.96;100446.47;5563449;32;34246;-54
2022/06/16 15:03:45;;;;;;;10.00;4.28;;;;;;;27.44;32.24;100457.47;5568626;32;34337;-54
2022/06/16 15:06:52;;;;;;;9.40;3.72;;;;;;;27.41;33.09;100455.50;5568851;32;33476;-54
2022/06/16 15:09:55;;;;;;;10.50;4.30;;;;;;;27.35;33.32;100460.66;5565859;32;33647;-54
2022/06/16 15:13:01;;;;;;;7.57;3.80;;;;;;;27.32;33.08;100464.19;5563065;32;34419;-54
